<?xml version="1.0" encoding="UTF-8" standalone="no" ?><gpx xmlns="http://www.topografix.com/GPX/1/1" xmlns:gpxx="http://www.garmin.com/xmlschemas/GpxExtensions/v3" xmlns:wptx1="http://www.garmin.com/xmlschemas/WaypointExtension/v1" xmlns:gpxtpx="http://www.garmin.com/xmlschemas/TrackPointExtension/v1" creator="eTrex 20" version="1.1" xmlns:xsi="http://www.w3.org/2001/XMLSchema-instance" xsi:schemaLocation="http://www.topografix.com/GPX/1/1 http://www.topografix.com/GPX/1/1/gpx.xsd http://www.garmin.com/xmlschemas/GpxExtensions/v3 http://www8.garmin.com/xmlschemas/GpxExtensionsv3.xsd http://www.garmin.com/xmlschemas/WaypointExtension/v1 http://www8.garmin.com/xmlschemas/WaypointExtensionv1.xsd http://www.garmin.com/xmlschemas/TrackPointExtension/v1 http://www.garmin.com/xmlschemas/TrackPointExtensionv1.xsd"><metadata><link href="http://www.garmin.com"><text>Garmin International</text></link><time>2014-06-12T18:27:45Z</time></metadata><trk><name>2014-06-12 20:27:41</name><trkseg><trkpt lat="46.4883960038" lon="6.7255355883"><ele>395.72</ele><time>2014-06-12T16:18:52Z</time></trkpt><trkpt lat="46.4884220716" lon="6.7255231831"><ele>396.68</ele><time>2014-06-12T16:19:10Z</time></trkpt><trkpt lat="46.4884286933" lon="6.7255475745"><ele>397.64</ele><time>2014-06-12T16:19:12Z</time></trkpt><trkpt lat="46.4884509891" lon="6.7256142106"><ele>399.57</ele><time>2014-06-12T16:19:17Z</time></trkpt><trkpt lat="46.4884742070" lon="6.7257364187"><ele>398.12</ele><time>2014-06-12T16:19:28Z</time></trkpt><trkpt lat="46.4884826727" lon="6.7257369217"><ele>398.12</ele><time>2014-06-12T16:19:41Z</time></trkpt><trkpt lat="46.4884951618" lon="6.7257532664"><ele>397.64</ele><time>2014-06-12T16:19:43Z</time></trkpt><trkpt lat="46.4885707665" lon="6.7259450443"><ele>396.68</ele><time>2014-06-12T16:19:53Z</time></trkpt><trkpt lat="46.4886482153" lon="6.7262446973"><ele>396.20</ele><time>2014-06-12T16:20:03Z</time></trkpt><trkpt lat="46.4886173699" lon="6.7266689893"><ele>394.28</ele><time>2014-06-12T16:20:14Z</time></trkpt><trkpt lat="46.4887301903" lon="6.7268424947"><ele>394.28</ele><time>2014-06-12T16:20:21Z</time></trkpt><trkpt lat="46.4888349641" lon="6.7271402199"><ele>394.76</ele><time>2014-06-12T16:20:30Z</time></trkpt><trkpt lat="46.4888700843" lon="6.7273168266"><ele>394.76</ele><time>2014-06-12T16:20:34Z</time></trkpt><trkpt lat="46.4888436813" lon="6.7275503464"><ele>394.28</ele><time>2014-06-12T16:20:38Z</time></trkpt><trkpt lat="46.4888756163" lon="6.7276744824"><ele>393.32</ele><time>2014-06-12T16:20:42Z</time></trkpt><trkpt lat="46.4889357146" lon="6.7278476525"><ele>392.36</ele><time>2014-06-12T16:20:52Z</time></trkpt><trkpt lat="46.4889782108" lon="6.7279292922"><ele>392.84</ele><time>2014-06-12T16:20:55Z</time></trkpt><trkpt lat="46.4891141653" lon="6.7284421809"><ele>393.80</ele><time>2014-06-12T16:21:09Z</time></trkpt><trkpt lat="46.4892227110" lon="6.7288202886"><ele>395.24</ele><time>2014-06-12T16:21:22Z</time></trkpt><trkpt lat="46.4893864095" lon="6.7293082830"><ele>396.20</ele><time>2014-06-12T16:21:37Z</time></trkpt><trkpt lat="46.4896295685" lon="6.7299448047"><ele>396.20</ele><time>2014-06-12T16:21:53Z</time></trkpt><trkpt lat="46.4899190795" lon="6.7307240702"><ele>395.72</ele><time>2014-06-12T16:22:09Z</time></trkpt><trkpt lat="46.4901663456" lon="6.7313612625"><ele>399.57</ele><time>2014-06-12T16:22:25Z</time></trkpt><trkpt lat="46.4903921541" lon="6.7321293801"><ele>396.20</ele><time>2014-06-12T16:22:38Z</time></trkpt><trkpt lat="46.4907080680" lon="6.7334862426"><ele>393.80</ele><time>2014-06-12T16:22:54Z</time></trkpt><trkpt lat="46.4907468762" lon="6.7336218618"><ele>394.28</ele><time>2014-06-12T16:22:56Z</time></trkpt><trkpt lat="46.4910742734" lon="6.7350164428"><ele>395.24</ele><time>2014-06-12T16:23:18Z</time></trkpt><trkpt lat="46.4910927974" lon="6.7351415008"><ele>395.24</ele><time>2014-06-12T16:23:20Z</time></trkpt><trkpt lat="46.4912841562" lon="6.7357325088"><ele>397.16</ele><time>2014-06-12T16:23:33Z</time></trkpt><trkpt lat="46.4912951365" lon="6.7362050805"><ele>400.05</ele><time>2014-06-12T16:23:46Z</time></trkpt><trkpt lat="46.4913120680" lon="6.7366811726"><ele>401.97</ele><time>2014-06-12T16:23:59Z</time></trkpt><trkpt lat="46.4913021773" lon="6.7374929599"><ele>401.01</ele><time>2014-06-12T16:24:13Z</time></trkpt><trkpt lat="46.4911919553" lon="6.7383211758"><ele>401.49</ele><time>2014-06-12T16:24:28Z</time></trkpt><trkpt lat="46.4910643827" lon="6.7390670814"><ele>403.41</ele><time>2014-06-12T16:24:44Z</time></trkpt><trkpt lat="46.4911917038" lon="6.7393437680"><ele>405.33</ele><time>2014-06-12T16:24:58Z</time></trkpt><trkpt lat="46.4912336972" lon="6.7394031957"><ele>406.29</ele><time>2014-06-12T16:25:02Z</time></trkpt><trkpt lat="46.4912943821" lon="6.7394705024"><ele>408.70</ele><time>2014-06-12T16:25:08Z</time></trkpt><trkpt lat="46.4914085437" lon="6.7397007532"><ele>413.50</ele><time>2014-06-12T16:25:24Z</time></trkpt><trkpt lat="46.4914792031" lon="6.7399615981"><ele>417.83</ele><time>2014-06-12T16:25:41Z</time></trkpt><trkpt lat="46.4914906025" lon="6.7400423158"><ele>418.79</ele><time>2014-06-12T16:25:46Z</time></trkpt><trkpt lat="46.4914891776" lon="6.7400717363"><ele>419.75</ele><time>2014-06-12T16:25:48Z</time></trkpt><trkpt lat="46.4914934523" lon="6.7401775997"><ele>421.19</ele><time>2014-06-12T16:25:55Z</time></trkpt><trkpt lat="46.4914841484" lon="6.7404407915"><ele>426.48</ele><time>2014-06-12T16:26:12Z</time></trkpt><trkpt lat="46.4914869145" lon="6.7404709663"><ele>426.96</ele><time>2014-06-12T16:26:14Z</time></trkpt><trkpt lat="46.4915070310" lon="6.7406377662"><ele>429.85</ele><time>2014-06-12T16:26:25Z</time></trkpt><trkpt lat="46.4915077854" lon="6.7407151312"><ele>430.81</ele><time>2014-06-12T16:26:30Z</time></trkpt><trkpt lat="46.4915213641" lon="6.7408261914"><ele>433.21</ele><time>2014-06-12T16:26:37Z</time></trkpt><trkpt lat="46.4915757626" lon="6.7410453781"><ele>435.13</ele><time>2014-06-12T16:26:50Z</time></trkpt><trkpt lat="46.4915993158" lon="6.7411142774"><ele>435.13</ele><time>2014-06-12T16:26:54Z</time></trkpt><trkpt lat="46.4916449133" lon="6.7412661575"><ele>435.13</ele><time>2014-06-12T16:27:03Z</time></trkpt><trkpt lat="46.4916646946" lon="6.7413291894"><ele>436.10</ele><time>2014-06-12T16:27:07Z</time></trkpt><trkpt lat="46.4917020779" lon="6.7416673154"><ele>438.02</ele><time>2014-06-12T16:27:25Z</time></trkpt><trkpt lat="46.4917686302" lon="6.7421386298"><ele>440.42</ele><time>2014-06-12T16:27:47Z</time></trkpt><trkpt lat="46.4918602444" lon="6.7425865587"><ele>443.79</ele><time>2014-06-12T16:28:07Z</time></trkpt><trkpt lat="46.4919069316" lon="6.7429053225"><ele>445.71</ele><time>2014-06-12T16:28:22Z</time></trkpt><trkpt lat="46.4919259585" lon="6.7430182267"><ele>446.67</ele><time>2014-06-12T16:28:28Z</time></trkpt><trkpt lat="46.4919282217" lon="6.7431114335"><ele>447.63</ele><time>2014-06-12T16:28:33Z</time></trkpt><trkpt lat="46.4919459075" lon="6.7432859447"><ele>449.55</ele><time>2014-06-12T16:28:42Z</time></trkpt><trkpt lat="46.4919403754" lon="6.7435814068"><ele>455.80</ele><time>2014-06-12T16:28:59Z</time></trkpt><trkpt lat="46.4919295628" lon="6.7436488811"><ele>457.24</ele><time>2014-06-12T16:29:03Z</time></trkpt><trkpt lat="46.4918350149" lon="6.7437062971"><ele>457.24</ele><time>2014-06-12T16:29:09Z</time></trkpt><trkpt lat="46.4915039297" lon="6.7439645436"><ele>454.36</ele><time>2014-06-12T16:29:18Z</time></trkpt><trkpt lat="46.4913887624" lon="6.7444217764"><ele>448.11</ele><time>2014-06-12T16:29:25Z</time></trkpt><trkpt lat="46.4910984132" lon="6.7446665280"><ele>440.90</ele><time>2014-06-12T16:29:31Z</time></trkpt><trkpt lat="46.4908295218" lon="6.7449085135"><ele>438.50</ele><time>2014-06-12T16:29:37Z</time></trkpt><trkpt lat="46.4907448646" lon="6.7456138507"><ele>436.58</ele><time>2014-06-12T16:29:47Z</time></trkpt><trkpt lat="46.4907290228" lon="6.7457320355"><ele>436.58</ele><time>2014-06-12T16:29:49Z</time></trkpt><trkpt lat="46.4906318765" lon="6.7459873483"><ele>435.61</ele><time>2014-06-12T16:29:53Z</time></trkpt><trkpt lat="46.4901887253" lon="6.7467310745"><ele>434.65</ele><time>2014-06-12T16:30:04Z</time></trkpt><trkpt lat="46.4898440614" lon="6.7474742979"><ele>431.29</ele><time>2014-06-12T16:30:15Z</time></trkpt><trkpt lat="46.4896149002" lon="6.7480658926"><ele>433.21</ele><time>2014-06-12T16:30:25Z</time></trkpt><trkpt lat="46.4894734975" lon="6.7487742472"><ele>435.61</ele><time>2014-06-12T16:30:43Z</time></trkpt><trkpt lat="46.4894035086" lon="6.7492339108"><ele>439.94</ele><time>2014-06-12T16:30:58Z</time></trkpt><trkpt lat="46.4892113116" lon="6.7497291137"><ele>439.94</ele><time>2014-06-12T16:31:11Z</time></trkpt><trkpt lat="46.4887414221" lon="6.7500917148"><ele>441.38</ele><time>2014-06-12T16:31:26Z</time></trkpt><trkpt lat="46.4885161165" lon="6.7504038569"><ele>442.82</ele><time>2014-06-12T16:31:35Z</time></trkpt><trkpt lat="46.4883297868" lon="6.7511594854"><ele>439.94</ele><time>2014-06-12T16:31:46Z</time></trkpt><trkpt lat="46.4881764818" lon="6.7515630741"><ele>437.54</ele><time>2014-06-12T16:31:50Z</time></trkpt><trkpt lat="46.4880360011" lon="6.7517779861"><ele>438.50</ele><time>2014-06-12T16:31:53Z</time></trkpt><trkpt lat="46.4878399484" lon="6.7523055431"><ele>440.90</ele><time>2014-06-12T16:32:04Z</time></trkpt><trkpt lat="46.4876191691" lon="6.7526339460"><ele>439.94</ele><time>2014-06-12T16:32:11Z</time></trkpt><trkpt lat="46.4870692324" lon="6.7536568735"><ele>434.65</ele><time>2014-06-12T16:32:25Z</time></trkpt><trkpt lat="46.4868516382" lon="6.7540831771"><ele>438.50</ele><time>2014-06-12T16:32:33Z</time></trkpt><trkpt lat="46.4864682499" lon="6.7545098159"><ele>440.90</ele><time>2014-06-12T16:32:48Z</time></trkpt><trkpt lat="46.4859145414" lon="6.7550231237"><ele>438.50</ele><time>2014-06-12T16:32:59Z</time></trkpt><trkpt lat="46.4856329095" lon="6.7555367667"><ele>440.42</ele><time>2014-06-12T16:33:09Z</time></trkpt><trkpt lat="46.4853682928" lon="6.7561229970"><ele>443.79</ele><time>2014-06-12T16:33:25Z</time></trkpt><trkpt lat="46.4850543905" lon="6.7566296831"><ele>446.19</ele><time>2014-06-12T16:33:39Z</time></trkpt><trkpt lat="46.4848134946" lon="6.7570251413"><ele>446.19</ele><time>2014-06-12T16:33:49Z</time></trkpt><trkpt lat="46.4842263423" lon="6.7578750663"><ele>447.15</ele><time>2014-06-12T16:34:08Z</time></trkpt><trkpt lat="46.4841922279" lon="6.7579192389"><ele>446.67</ele><time>2014-06-12T16:34:09Z</time></trkpt><trkpt lat="46.4839918166" lon="6.7580634076"><ele>446.19</ele><time>2014-06-12T16:34:13Z</time></trkpt><trkpt lat="46.4837792516" lon="6.7583084106"><ele>445.71</ele><time>2014-06-12T16:34:17Z</time></trkpt><trkpt lat="46.4833557978" lon="6.7588769551"><ele>445.71</ele><time>2014-06-12T16:34:30Z</time></trkpt><trkpt lat="46.4828337729" lon="6.7594626825"><ele>447.15</ele><time>2014-06-12T16:34:46Z</time></trkpt><trkpt lat="46.4825322758" lon="6.7598502617"><ele>448.11</ele><time>2014-06-12T16:34:55Z</time></trkpt><trkpt lat="46.4822570141" lon="6.7601487413"><ele>448.11</ele><time>2014-06-12T16:35:02Z</time></trkpt><trkpt lat="46.4820618834" lon="6.7603166308"><ele>448.11</ele><time>2014-06-12T16:35:07Z</time></trkpt><trkpt lat="46.4817602187" lon="6.7607534118"><ele>445.71</ele><time>2014-06-12T16:35:14Z</time></trkpt><trkpt lat="46.4815397747" lon="6.7612477764"><ele>447.15</ele><time>2014-06-12T16:35:24Z</time></trkpt><trkpt lat="46.4810947794" lon="6.7620364297"><ele>444.27</ele><time>2014-06-12T16:35:38Z</time></trkpt><trkpt lat="46.4806165919" lon="6.7630239855"><ele>444.27</ele><time>2014-06-12T16:35:53Z</time></trkpt><trkpt lat="46.4801842533" lon="6.7637411412"><ele>438.98</ele><time>2014-06-12T16:36:04Z</time></trkpt><trkpt lat="46.4801175334" lon="6.7638247088"><ele>438.02</ele><time>2014-06-12T16:36:05Z</time></trkpt><trkpt lat="46.4797611348" lon="6.7645692732"><ele>434.65</ele><time>2014-06-12T16:36:12Z</time></trkpt><trkpt lat="46.4795095101" lon="6.7655202001"><ele>435.61</ele><time>2014-06-12T16:36:24Z</time></trkpt><trkpt lat="46.4794313069" lon="6.7657017522"><ele>436.58</ele><time>2014-06-12T16:36:27Z</time></trkpt><trkpt lat="46.4793714602" lon="6.7658776045"><ele>436.10</ele><time>2014-06-12T16:36:30Z</time></trkpt><trkpt lat="46.4789458271" lon="6.7669302877"><ele>437.06</ele><time>2014-06-12T16:36:49Z</time></trkpt><trkpt lat="46.4786424860" lon="6.7677588388"><ele>436.58</ele><time>2014-06-12T16:37:02Z</time></trkpt><trkpt lat="46.4785034303" lon="6.7683006451"><ele>439.46</ele><time>2014-06-12T16:37:16Z</time></trkpt><trkpt lat="46.4784089662" lon="6.7687785812"><ele>443.31</ele><time>2014-06-12T16:37:30Z</time></trkpt><trkpt lat="46.4782979060" lon="6.7692572717"><ele>448.11</ele><time>2014-06-12T16:37:46Z</time></trkpt><trkpt lat="46.4781311061" lon="6.7697807215"><ele>451.96</ele><time>2014-06-12T16:38:03Z</time></trkpt><trkpt lat="46.4779612888" lon="6.7703509424"><ele>454.36</ele><time>2014-06-12T16:38:21Z</time></trkpt><trkpt lat="46.4777916390" lon="6.7708833609"><ele>455.80</ele><time>2014-06-12T16:38:36Z</time></trkpt><trkpt lat="46.4776782319" lon="6.7712141108"><ele>454.84</ele><time>2014-06-12T16:38:44Z</time></trkpt><trkpt lat="46.4775369130" lon="6.7714319564"><ele>453.88</ele><time>2014-06-12T16:38:48Z</time></trkpt><trkpt lat="46.4772920776" lon="6.7720474396"><ele>453.88</ele><time>2014-06-12T16:38:59Z</time></trkpt><trkpt lat="46.4771454781" lon="6.7726012319"><ele>458.21</ele><time>2014-06-12T16:39:15Z</time></trkpt><trkpt lat="46.4770327415" lon="6.7731577903"><ele>463.01</ele><time>2014-06-12T16:39:33Z</time></trkpt><trkpt lat="46.4768281393" lon="6.7736133467"><ele>465.42</ele><time>2014-06-12T16:39:49Z</time></trkpt><trkpt lat="46.4766327571" lon="6.7741680611"><ele>467.34</ele><time>2014-06-12T16:40:05Z</time></trkpt><trkpt lat="46.4765112195" lon="6.7746891640"><ele>468.30</ele><time>2014-06-12T16:40:20Z</time></trkpt><trkpt lat="46.4764211979" lon="6.7747407127"><ele>468.78</ele><time>2014-06-12T16:40:29Z</time></trkpt><trkpt lat="46.4763532206" lon="6.7748459894"><ele>468.78</ele><time>2014-06-12T16:40:32Z</time></trkpt><trkpt lat="46.4762390591" lon="6.7751626577"><ele>466.86</ele><time>2014-06-12T16:40:37Z</time></trkpt><trkpt lat="46.4761193655" lon="6.7757841758"><ele>461.57</ele><time>2014-06-12T16:40:44Z</time></trkpt><trkpt lat="46.4760741033" lon="6.7761942185"><ele>456.76</ele><time>2014-06-12T16:40:48Z</time></trkpt><trkpt lat="46.4759799745" lon="6.7766037583"><ele>451.00</ele><time>2014-06-12T16:40:52Z</time></trkpt><trkpt lat="46.4760852512" lon="6.7770537827"><ele>442.82</ele><time>2014-06-12T16:40:58Z</time></trkpt><trkpt lat="46.4762046933" lon="6.7770980392"><ele>440.90</ele><time>2014-06-12T16:41:00Z</time></trkpt><trkpt lat="46.4762672223" lon="6.7773857899"><ele>437.54</ele><time>2014-06-12T16:41:06Z</time></trkpt><trkpt lat="46.4761411585" lon="6.7775193974"><ele>436.58</ele><time>2014-06-12T16:41:10Z</time></trkpt><trkpt lat="46.4760015998" lon="6.7777165398"><ele>434.17</ele><time>2014-06-12T16:41:21Z</time></trkpt><trkpt lat="46.4759674855" lon="6.7777783982"><ele>433.21</ele><time>2014-06-12T16:41:30Z</time></trkpt><trkpt lat="46.4760912862" lon="6.7779166996"><ele>438.02</ele><time>2014-06-12T16:41:38Z</time></trkpt><trkpt lat="46.4761579223" lon="6.7779933102"><ele>439.46</ele><time>2014-06-12T16:41:42Z</time></trkpt><trkpt lat="46.4763113949" lon="6.7782591842"><ele>443.79</ele><time>2014-06-12T16:41:54Z</time></trkpt><trkpt lat="46.4763253089" lon="6.7782994173"><ele>444.75</ele><time>2014-06-12T16:41:56Z</time></trkpt><trkpt lat="46.4763501193" lon="6.7784901895"><ele>446.19</ele><time>2014-06-12T16:42:03Z</time></trkpt><trkpt lat="46.4763990697" lon="6.7786069494"><ele>453.40</ele><time>2014-06-12T16:42:10Z</time></trkpt><trkpt lat="46.4764606766" lon="6.7786042672"><ele>454.36</ele><time>2014-06-12T16:42:15Z</time></trkpt><trkpt lat="46.4766047616" lon="6.7786176782"><ele>454.84</ele><time>2014-06-12T16:42:27Z</time></trkpt><trkpt lat="46.4768508542" lon="6.7786004115"><ele>456.28</ele><time>2014-06-12T16:42:39Z</time></trkpt><trkpt lat="46.4768855553" lon="6.7786024231"><ele>455.80</ele><time>2014-06-12T16:42:41Z</time></trkpt><trkpt lat="46.4769921731" lon="6.7789097037"><ele>455.32</ele><time>2014-06-12T16:42:50Z</time></trkpt><trkpt lat="46.4770259522" lon="6.7791661061"><ele>454.36</ele><time>2014-06-12T16:42:53Z</time></trkpt><trkpt lat="46.4771059155" lon="6.7796147894"><ele>453.40</ele><time>2014-06-12T16:42:59Z</time></trkpt><trkpt lat="46.4771256968" lon="6.7797727045"><ele>453.40</ele><time>2014-06-12T16:43:01Z</time></trkpt><trkpt lat="46.4771584701" lon="6.7805654649"><ele>452.92</ele><time>2014-06-12T16:43:13Z</time></trkpt><trkpt lat="46.4770138822" lon="6.7812563013"><ele>454.36</ele><time>2014-06-12T16:43:29Z</time></trkpt><trkpt lat="46.4768682886" lon="6.7816091795"><ele>453.88</ele><time>2014-06-12T16:43:37Z</time></trkpt><trkpt lat="46.4766787738" lon="6.7819069885"><ele>451.96</ele><time>2014-06-12T16:43:43Z</time></trkpt><trkpt lat="46.4765899256" lon="6.7820089124"><ele>451.48</ele><time>2014-06-12T16:43:45Z</time></trkpt><trkpt lat="46.4760575909" lon="6.7828999925"><ele>446.67</ele><time>2014-06-12T16:43:58Z</time></trkpt><trkpt lat="46.4758510608" lon="6.7832587380"><ele>441.86</ele><time>2014-06-12T16:44:02Z</time></trkpt><trkpt lat="46.4757291880" lon="6.7836707085"><ele>438.98</ele><time>2014-06-12T16:44:06Z</time></trkpt><trkpt lat="46.4755577780" lon="6.7844625469"><ele>431.77</ele><time>2014-06-12T16:44:14Z</time></trkpt><trkpt lat="46.4754116815" lon="6.7847930454"><ele>428.89</ele><time>2014-06-12T16:44:20Z</time></trkpt><trkpt lat="46.4754014555" lon="6.7853500228"><ele>422.16</ele><time>2014-06-12T16:44:29Z</time></trkpt><trkpt lat="46.4756255038" lon="6.7855490092"><ele>418.79</ele><time>2014-06-12T16:44:32Z</time></trkpt><trkpt lat="46.4758103248" lon="6.7860029731"><ele>420.23</ele><time>2014-06-12T16:44:38Z</time></trkpt><trkpt lat="46.4757575188" lon="6.7870409042"><ele>418.79</ele><time>2014-06-12T16:44:52Z</time></trkpt><trkpt lat="46.4756740350" lon="6.7875729036"><ele>419.75</ele><time>2014-06-12T16:45:01Z</time></trkpt><trkpt lat="46.4755992685" lon="6.7878755741"><ele>418.79</ele><time>2014-06-12T16:45:05Z</time></trkpt><trkpt lat="46.4755507372" lon="6.7887588590"><ele>414.95</ele><time>2014-06-12T16:45:14Z</time></trkpt><trkpt lat="46.4754829276" lon="6.7889887746"><ele>413.02</ele><time>2014-06-12T16:45:17Z</time></trkpt><trkpt lat="46.4754207339" lon="6.7892493680"><ele>411.58</ele><time>2014-06-12T16:45:20Z</time></trkpt><trkpt lat="46.4753330592" lon="6.7895700596"><ele>412.06</ele><time>2014-06-12T16:45:24Z</time></trkpt><trkpt lat="46.4750068355" lon="6.7902602255"><ele>413.02</ele><time>2014-06-12T16:45:37Z</time></trkpt><trkpt lat="46.4748537820" lon="6.7907415144"><ele>411.58</ele><time>2014-06-12T16:45:43Z</time></trkpt><trkpt lat="46.4747746568" lon="6.7910218053"><ele>412.54</ele><time>2014-06-12T16:45:47Z</time></trkpt><trkpt lat="46.4746366069" lon="6.7916465923"><ele>415.91</ele><time>2014-06-12T16:46:01Z</time></trkpt><trkpt lat="46.4746073540" lon="6.7919863109"><ele>419.75</ele><time>2014-06-12T16:46:14Z</time></trkpt><trkpt lat="46.4744975511" lon="6.7924743891"><ele>423.60</ele><time>2014-06-12T16:46:31Z</time></trkpt><trkpt lat="46.4743781928" lon="6.7929827515"><ele>427.44</ele><time>2014-06-12T16:46:48Z</time></trkpt><trkpt lat="46.4743470121" lon="6.7934095580"><ele>431.29</ele><time>2014-06-12T16:47:05Z</time></trkpt><trkpt lat="46.4742665458" lon="6.7938301619"><ele>433.69</ele><time>2014-06-12T16:47:22Z</time></trkpt><trkpt lat="46.4742639475" lon="6.7940172460"><ele>434.65</ele><time>2014-06-12T16:47:30Z</time></trkpt><trkpt lat="46.4742929488" lon="6.7940416373"><ele>434.65</ele><time>2014-06-12T16:47:42Z</time></trkpt><trkpt lat="46.4742846508" lon="6.7940356024"><ele>435.13</ele><time>2014-06-12T16:48:03Z</time></trkpt><trkpt lat="46.4742873330" lon="6.7940413859"><ele>437.06</ele><time>2014-06-12T16:48:36Z</time></trkpt><trkpt lat="46.4742885064" lon="6.7940394580"><ele>435.61</ele><time>2014-06-12T16:48:58Z</time></trkpt><trkpt lat="46.4742842317" lon="6.7940335069"><ele>436.58</ele><time>2014-06-12T16:49:24Z</time></trkpt><trkpt lat="46.4742997382" lon="6.7940396257"><ele>436.10</ele><time>2014-06-12T16:49:43Z</time></trkpt><trkpt lat="46.4743030071" lon="6.7940542102"><ele>435.61</ele><time>2014-06-12T16:50:02Z</time></trkpt><trkpt lat="46.4743158314" lon="6.7940568924"><ele>435.61</ele><time>2014-06-12T16:50:04Z</time></trkpt><trkpt lat="46.4744087867" lon="6.7939133104"><ele>438.02</ele><time>2014-06-12T16:50:15Z</time></trkpt><trkpt lat="46.4745216072" lon="6.7936421558"><ele>440.42</ele><time>2014-06-12T16:50:34Z</time></trkpt><trkpt lat="46.4745475911" lon="6.7935905233"><ele>440.90</ele><time>2014-06-12T16:50:38Z</time></trkpt><trkpt lat="46.4745916799" lon="6.7935276590"><ele>441.86</ele><time>2014-06-12T16:50:43Z</time></trkpt><trkpt lat="46.4746252075" lon="6.7934175208"><ele>443.79</ele><time>2014-06-12T16:50:50Z</time></trkpt><trkpt lat="46.4746715594" lon="6.7933170218"><ele>445.71</ele><time>2014-06-12T16:50:57Z</time></trkpt><trkpt lat="46.4746879041" lon="6.7932585161"><ele>446.67</ele><time>2014-06-12T16:51:01Z</time></trkpt><trkpt lat="46.4747164864" lon="6.7932252400"><ele>447.63</ele><time>2014-06-12T16:51:04Z</time></trkpt><trkpt lat="46.4748344198" lon="6.7930772156"><ele>451.48</ele><time>2014-06-12T16:51:17Z</time></trkpt><trkpt lat="46.4749424625" lon="6.7929224856"><ele>455.80</ele><time>2014-06-12T16:51:30Z</time></trkpt><trkpt lat="46.4750094339" lon="6.7927856930"><ele>457.24</ele><time>2014-06-12T16:51:42Z</time></trkpt><trkpt lat="46.4750297181" lon="6.7926188093"><ele>458.21</ele><time>2014-06-12T16:51:53Z</time></trkpt><trkpt lat="46.4750862960" lon="6.7925888021"><ele>458.21</ele><time>2014-06-12T16:51:58Z</time></trkpt><trkpt lat="46.4751158841" lon="6.7927986849"><ele>459.65</ele><time>2014-06-12T16:52:09Z</time></trkpt><trkpt lat="46.4749915805" lon="6.7932176124"><ele>461.57</ele><time>2014-06-12T16:52:25Z</time></trkpt><trkpt lat="46.4747560490" lon="6.7937903479"><ele>460.61</ele><time>2014-06-12T16:52:41Z</time></trkpt><trkpt lat="46.4745568950" lon="6.7942164838"><ele>458.69</ele><time>2014-06-12T16:52:49Z</time></trkpt><trkpt lat="46.4742893446" lon="6.7954783794"><ele>455.32</ele><time>2014-06-12T16:53:04Z</time></trkpt><trkpt lat="46.4743237942" lon="6.7958306707"><ele>455.80</ele><time>2014-06-12T16:53:11Z</time></trkpt><trkpt lat="46.4741838165" lon="6.7961180024"><ele>455.32</ele><time>2014-06-12T16:53:18Z</time></trkpt><trkpt lat="46.4738990832" lon="6.7970820051"><ele>449.07</ele><time>2014-06-12T16:53:28Z</time></trkpt><trkpt lat="46.4737531543" lon="6.7982414737"><ele>446.19</ele><time>2014-06-12T16:53:38Z</time></trkpt><trkpt lat="46.4737466164" lon="6.7983318307"><ele>445.71</ele><time>2014-06-12T16:53:39Z</time></trkpt><trkpt lat="46.4738484565" lon="6.7985290568"><ele>448.11</ele><time>2014-06-12T16:53:47Z</time></trkpt><trkpt lat="46.4739378076" lon="6.7986233532"><ele>451.48</ele><time>2014-06-12T16:53:54Z</time></trkpt><trkpt lat="46.4740832336" lon="6.7988453060"><ele>454.84</ele><time>2014-06-12T16:54:07Z</time></trkpt><trkpt lat="46.4740800485" lon="6.7992556840"><ele>453.88</ele><time>2014-06-12T16:54:14Z</time></trkpt><trkpt lat="46.4740893524" lon="6.7992896307"><ele>454.36</ele><time>2014-06-12T16:54:15Z</time></trkpt><trkpt lat="46.4741189405" lon="6.7994716018"><ele>457.24</ele><time>2014-06-12T16:54:25Z</time></trkpt><trkpt lat="46.4741185214" lon="6.7995410878"><ele>458.21</ele><time>2014-06-12T16:54:29Z</time></trkpt><trkpt lat="46.4741377998" lon="6.7995877750"><ele>459.65</ele><time>2014-06-12T16:54:32Z</time></trkpt><trkpt lat="46.4741804637" lon="6.7997457739"><ele>462.05</ele><time>2014-06-12T16:54:42Z</time></trkpt><trkpt lat="46.4741629455" lon="6.7998196185"><ele>466.86</ele><time>2014-06-12T16:54:54Z</time></trkpt><trkpt lat="46.4741626941" lon="6.7998192832"><ele>465.90</ele><time>2014-06-12T16:55:16Z</time></trkpt><trkpt lat="46.4740727562" lon="6.8001166731"><ele>466.86</ele><time>2014-06-12T16:55:26Z</time></trkpt><trkpt lat="46.4739589300" lon="6.8004691321"><ele>470.70</ele><time>2014-06-12T16:55:39Z</time></trkpt><trkpt lat="46.4738598559" lon="6.8011198193"><ele>472.14</ele><time>2014-06-12T16:55:58Z</time></trkpt><trkpt lat="46.4738777094" lon="6.8016333785"><ele>470.70</ele><time>2014-06-12T16:56:12Z</time></trkpt><trkpt lat="46.4738270827" lon="6.8023062777"><ele>472.63</ele><time>2014-06-12T16:56:28Z</time></trkpt><trkpt lat="46.4738624543" lon="6.8028000556"><ele>475.03</ele><time>2014-06-12T16:56:41Z</time></trkpt><trkpt lat="46.4738715906" lon="6.8033299595"><ele>479.35</ele><time>2014-06-12T16:56:58Z</time></trkpt><trkpt lat="46.4737813175" lon="6.8036875315"><ele>483.68</ele><time>2014-06-12T16:57:12Z</time></trkpt><trkpt lat="46.4737141784" lon="6.8040052056"><ele>485.60</ele><time>2014-06-12T16:57:24Z</time></trkpt><trkpt lat="46.4737348817" lon="6.8041343708"><ele>485.60</ele><time>2014-06-12T16:57:29Z</time></trkpt><trkpt lat="46.4736519847" lon="6.8045025878"><ele>487.53</ele><time>2014-06-12T16:57:45Z</time></trkpt><trkpt lat="46.4735713508" lon="6.8048499338"><ele>490.89</ele><time>2014-06-12T16:58:00Z</time></trkpt><trkpt lat="46.4734813292" lon="6.8052566238"><ele>495.22</ele><time>2014-06-12T16:58:19Z</time></trkpt><trkpt lat="46.4734822512" lon="6.8053726293"><ele>496.18</ele><time>2014-06-12T16:58:25Z</time></trkpt><trkpt lat="46.4735203050" lon="6.8055282813"><ele>498.10</ele><time>2014-06-12T16:58:33Z</time></trkpt><trkpt lat="46.4735603705" lon="6.8055887148"><ele>498.58</ele><time>2014-06-12T16:58:37Z</time></trkpt><trkpt lat="46.4736215584" lon="6.8056344800"><ele>500.50</ele><time>2014-06-12T16:58:42Z</time></trkpt><trkpt lat="46.4738429245" lon="6.8057702668"><ele>504.83</ele><time>2014-06-12T16:58:59Z</time></trkpt><trkpt lat="46.4738663938" lon="6.8057942390"><ele>505.79</ele><time>2014-06-12T16:59:01Z</time></trkpt><trkpt lat="46.4738767873" lon="6.8058721069"><ele>507.71</ele><time>2014-06-12T16:59:05Z</time></trkpt><trkpt lat="46.4738757815" lon="6.8059430178"><ele>510.60</ele><time>2014-06-12T16:59:17Z</time></trkpt><trkpt lat="46.4738777094" lon="6.8059509806"><ele>509.64</ele><time>2014-06-12T16:59:39Z</time></trkpt><trkpt lat="46.4738993347" lon="6.8059422635"><ele>511.56</ele><time>2014-06-12T17:00:07Z</time></trkpt><trkpt lat="46.4738797210" lon="6.8059539981"><ele>515.88</ele><time>2014-06-12T17:00:32Z</time></trkpt><trkpt lat="46.4739061240" lon="6.8059577700"><ele>514.92</ele><time>2014-06-12T17:00:35Z</time></trkpt><trkpt lat="46.4739001729" lon="6.8059022818"><ele>513.48</ele><time>2014-06-12T17:00:38Z</time></trkpt><trkpt lat="46.4739303477" lon="6.8058389146"><ele>513.00</ele><time>2014-06-12T17:00:46Z</time></trkpt><trkpt lat="46.4739379752" lon="6.8058373220"><ele>513.00</ele><time>2014-06-12T17:00:49Z</time></trkpt><trkpt lat="46.4739502128" lon="6.8058591150"><ele>513.00</ele><time>2014-06-12T17:00:51Z</time></trkpt><trkpt lat="46.4739270788" lon="6.8061389867"><ele>513.00</ele><time>2014-06-12T17:01:04Z</time></trkpt><trkpt lat="46.4739061240" lon="6.8064709939"><ele>515.40</ele><time>2014-06-12T17:01:20Z</time></trkpt><trkpt lat="46.4738238137" lon="6.8068057671"><ele>518.29</ele><time>2014-06-12T17:01:37Z</time></trkpt><trkpt lat="46.4738093968" lon="6.8071141373"><ele>522.61</ele><time>2014-06-12T17:01:53Z</time></trkpt><trkpt lat="46.4738904499" lon="6.8073712941"><ele>524.06</ele><time>2014-06-12T17:02:07Z</time></trkpt><trkpt lat="46.4738954790" lon="6.8074955139"><ele>524.54</ele><time>2014-06-12T17:02:13Z</time></trkpt><trkpt lat="46.4739337843" lon="6.8079276010"><ele>527.90</ele><time>2014-06-12T17:02:32Z</time></trkpt><trkpt lat="46.4739062916" lon="6.8083561677"><ele>529.82</ele><time>2014-06-12T17:02:47Z</time></trkpt><trkpt lat="46.4738322794" lon="6.8088959623"><ele>525.02</ele><time>2014-06-12T17:02:52Z</time></trkpt><trkpt lat="46.4739084709" lon="6.8102519028"><ele>523.09</ele><time>2014-06-12T17:03:04Z</time></trkpt><trkpt lat="46.4739503805" lon="6.8110835552"><ele>523.09</ele><time>2014-06-12T17:03:15Z</time></trkpt><trkpt lat="46.4738069661" lon="6.8116879743"><ele>521.17</ele><time>2014-06-12T17:03:24Z</time></trkpt><trkpt lat="46.4737714268" lon="6.8126308545"><ele>518.77</ele><time>2014-06-12T17:03:34Z</time></trkpt><trkpt lat="46.4738405775" lon="6.8131972197"><ele>519.25</ele><time>2014-06-12T17:03:43Z</time></trkpt><trkpt lat="46.4741416555" lon="6.8142561056"><ele>522.13</ele><time>2014-06-12T17:04:03Z</time></trkpt><trkpt lat="46.4742628578" lon="6.8146222271"><ele>524.06</ele><time>2014-06-12T17:04:14Z</time></trkpt><trkpt lat="46.4742920268" lon="6.8150586728"><ele>522.13</ele><time>2014-06-12T17:04:20Z</time></trkpt><trkpt lat="46.4744150732" lon="6.8154773489"><ele>520.21</ele><time>2014-06-12T17:04:25Z</time></trkpt><trkpt lat="46.4744889177" lon="6.8161125295"><ele>518.29</ele><time>2014-06-12T17:04:32Z</time></trkpt><trkpt lat="46.4743999019" lon="6.8164857756"><ele>517.33</ele><time>2014-06-12T17:04:36Z</time></trkpt><trkpt lat="46.4743729122" lon="6.8168834131"><ele>516.37</ele><time>2014-06-12T17:04:40Z</time></trkpt><trkpt lat="46.4744787756" lon="6.8185324688"><ele>512.52</ele><time>2014-06-12T17:04:54Z</time></trkpt><trkpt lat="46.4744920190" lon="6.8187871110"><ele>513.00</ele><time>2014-06-12T17:04:57Z</time></trkpt><trkpt lat="46.4744750876" lon="6.8193281628"><ele>514.44</ele><time>2014-06-12T17:05:08Z</time></trkpt><trkpt lat="46.4745118842" lon="6.8193930387"><ele>514.44</ele><time>2014-06-12T17:05:12Z</time></trkpt><trkpt lat="46.4748768322" lon="6.8200298119"><ele>521.17</ele><time>2014-06-12T17:05:45Z</time></trkpt><trkpt lat="46.4747758303" lon="6.8203130364"><ele>530.79</ele><time>2014-06-12T17:05:59Z</time></trkpt><trkpt lat="46.4747355133" lon="6.8206323870"><ele>535.59</ele><time>2014-06-12T17:06:15Z</time></trkpt><trkpt lat="46.4748294745" lon="6.8208277691"><ele>537.99</ele><time>2014-06-12T17:06:27Z</time></trkpt><trkpt lat="46.4748941828" lon="6.8209633045"><ele>539.44</ele><time>2014-06-12T17:06:36Z</time></trkpt><trkpt lat="46.4750551153" lon="6.8212600239"><ele>544.72</ele><time>2014-06-12T17:06:57Z</time></trkpt><trkpt lat="46.4750659280" lon="6.8213052861"><ele>545.69</ele><time>2014-06-12T17:07:00Z</time></trkpt><trkpt lat="46.4751317259" lon="6.8214381393"><ele>550.01</ele><time>2014-06-12T17:07:10Z</time></trkpt><trkpt lat="46.4751980267" lon="6.8215750996"><ele>553.38</ele><time>2014-06-12T17:07:20Z</time></trkpt><trkpt lat="46.4752052352" lon="6.8216639478"><ele>554.34</ele><time>2014-06-12T17:07:25Z</time></trkpt><trkpt lat="46.4752334822" lon="6.8218523730"><ele>555.30</ele><time>2014-06-12T17:07:36Z</time></trkpt><trkpt lat="46.4752282016" lon="6.8222009763"><ele>558.66</ele><time>2014-06-12T17:07:55Z</time></trkpt><trkpt lat="46.4752603043" lon="6.8224976957"><ele>561.07</ele><time>2014-06-12T17:08:11Z</time></trkpt><trkpt lat="46.4753529243" lon="6.8228247575"><ele>562.99</ele><time>2014-06-12T17:08:30Z</time></trkpt><trkpt lat="46.4754519984" lon="6.8229581974"><ele>564.43</ele><time>2014-06-12T17:08:41Z</time></trkpt><trkpt lat="46.4756792318" lon="6.8230146077"><ele>567.80</ele><time>2014-06-12T17:08:59Z</time></trkpt><trkpt lat="46.4757870231" lon="6.8230808247"><ele>568.76</ele><time>2014-06-12T17:09:07Z</time></trkpt><trkpt lat="46.4759005979" lon="6.8233497161"><ele>570.20</ele><time>2014-06-12T17:09:23Z</time></trkpt><trkpt lat="46.4759884402" lon="6.8236120697"><ele>575.01</ele><time>2014-06-12T17:09:37Z</time></trkpt><trkpt lat="46.4758142643" lon="6.8237188552"><ele>578.37</ele><time>2014-06-12T17:09:49Z</time></trkpt><trkpt lat="46.4757321216" lon="6.8237470184"><ele>578.85</ele><time>2014-06-12T17:09:54Z</time></trkpt><trkpt lat="46.4756933134" lon="6.8238126487"><ele>579.81</ele><time>2014-06-12T17:10:04Z</time></trkpt><trkpt lat="46.4756664913" lon="6.8237865809"><ele>575.49</ele><time>2014-06-12T17:11:00Z</time></trkpt><trkpt lat="46.4756680839" lon="6.8238099664"><ele>571.64</ele><time>2014-06-12T17:11:47Z</time></trkpt><trkpt lat="46.4756720234" lon="6.8238295801"><ele>575.97</ele><time>2014-06-12T17:12:32Z</time></trkpt><trkpt lat="46.4757084008" lon="6.8237948790"><ele>576.45</ele><time>2014-06-12T17:13:07Z</time></trkpt><trkpt lat="46.4756784774" lon="6.8237980641"><ele>576.93</ele><time>2014-06-12T17:13:54Z</time></trkpt><trkpt lat="46.4756890386" lon="6.8238148279"><ele>576.45</ele><time>2014-06-12T17:14:41Z</time></trkpt><trkpt lat="46.4757409226" lon="6.8238215335"><ele>576.93</ele><time>2014-06-12T17:14:45Z</time></trkpt><trkpt lat="46.4758925512" lon="6.8237098027"><ele>577.41</ele><time>2014-06-12T17:14:55Z</time></trkpt><trkpt lat="46.4759373106" lon="6.8236911111"><ele>577.89</ele><time>2014-06-12T17:14:58Z</time></trkpt><trkpt lat="46.4759252407" lon="6.8234202079"><ele>576.93</ele><time>2014-06-12T17:15:07Z</time></trkpt><trkpt lat="46.4758010209" lon="6.8230950739"><ele>575.01</ele><time>2014-06-12T17:15:14Z</time></trkpt><trkpt lat="46.4756537508" lon="6.8229835946"><ele>574.04</ele><time>2014-06-12T17:15:18Z</time></trkpt><trkpt lat="46.4755206462" lon="6.8229398411"><ele>573.08</ele><time>2014-06-12T17:15:21Z</time></trkpt><trkpt lat="46.4752585441" lon="6.8225140404"><ele>564.43</ele><time>2014-06-12T17:15:30Z</time></trkpt><trkpt lat="46.4752485696" lon="6.8224407826"><ele>563.47</ele><time>2014-06-12T17:15:31Z</time></trkpt><trkpt lat="46.4752222504" lon="6.8219086155"><ele>557.22</ele><time>2014-06-12T17:15:38Z</time></trkpt><trkpt lat="46.4752172213" lon="6.8217272311"><ele>555.30</ele><time>2014-06-12T17:15:41Z</time></trkpt><trkpt lat="46.4751490764" lon="6.8215015903"><ele>551.93</ele><time>2014-06-12T17:15:45Z</time></trkpt><trkpt lat="46.4750669338" lon="6.8213035259"><ele>548.57</ele><time>2014-06-12T17:15:48Z</time></trkpt><trkpt lat="46.4748214278" lon="6.8208344746"><ele>540.40</ele><time>2014-06-12T17:15:54Z</time></trkpt><trkpt lat="46.4747965336" lon="6.8202609010"><ele>532.71</ele><time>2014-06-12T17:16:00Z</time></trkpt><trkpt lat="46.4748798497" lon="6.8193948828"><ele>526.94</ele><time>2014-06-12T17:16:07Z</time></trkpt><trkpt lat="46.4749738108" lon="6.8187534995"><ele>526.46</ele><time>2014-06-12T17:16:11Z</time></trkpt><trkpt lat="46.4750008844" lon="6.8183504976"><ele>527.90</ele><time>2014-06-12T17:16:15Z</time></trkpt><trkpt lat="46.4749117009" lon="6.8182163034"><ele>528.38</ele><time>2014-06-12T17:16:18Z</time></trkpt><trkpt lat="46.4744270593" lon="6.8174145743"><ele>520.21</ele><time>2014-06-12T17:16:33Z</time></trkpt><trkpt lat="46.4743538015" lon="6.8167819921"><ele>521.17</ele><time>2014-06-12T17:16:47Z</time></trkpt><trkpt lat="46.4744791947" lon="6.8160979450"><ele>521.17</ele><time>2014-06-12T17:17:03Z</time></trkpt><trkpt lat="46.4744343515" lon="6.8154901732"><ele>523.09</ele><time>2014-06-12T17:17:16Z</time></trkpt><trkpt lat="46.4742826391" lon="6.8149883486"><ele>525.50</ele><time>2014-06-12T17:17:28Z</time></trkpt><trkpt lat="46.4743090421" lon="6.8145002704"><ele>526.94</ele><time>2014-06-12T17:17:42Z</time></trkpt><trkpt lat="46.4744159952" lon="6.8141220789"><ele>530.79</ele><time>2014-06-12T17:17:57Z</time></trkpt><trkpt lat="46.4745817892" lon="6.8137432169"><ele>532.71</ele><time>2014-06-12T17:18:14Z</time></trkpt><trkpt lat="46.4746786840" lon="6.8133812025"><ele>536.07</ele><time>2014-06-12T17:18:30Z</time></trkpt><trkpt lat="46.4747278858" lon="6.8129935395"><ele>539.44</ele><time>2014-06-12T17:18:46Z</time></trkpt><trkpt lat="46.4747871459" lon="6.8125905376"><ele>541.36</ele><time>2014-06-12T17:19:02Z</time></trkpt><trkpt lat="46.4748088550" lon="6.8120993581"><ele>542.80</ele><time>2014-06-12T17:19:18Z</time></trkpt><trkpt lat="46.4748126268" lon="6.8116289657"><ele>543.76</ele><time>2014-06-12T17:19:32Z</time></trkpt><trkpt lat="46.4747996349" lon="6.8110247981"><ele>546.65</ele><time>2014-06-12T17:19:49Z</time></trkpt><trkpt lat="46.4747785125" lon="6.8103813194"><ele>549.53</ele><time>2014-06-12T17:20:07Z</time></trkpt><trkpt lat="46.4747724775" lon="6.8098141998"><ele>550.97</ele><time>2014-06-12T17:20:23Z</time></trkpt><trkpt lat="46.4747737348" lon="6.8092517741"><ele>551.45</ele><time>2014-06-12T17:20:39Z</time></trkpt><trkpt lat="46.4747816976" lon="6.8086774461"><ele>554.34</ele><time>2014-06-12T17:20:54Z</time></trkpt><trkpt lat="46.4747977909" lon="6.8081083987"><ele>556.26</ele><time>2014-06-12T17:21:09Z</time></trkpt><trkpt lat="46.4748448133" lon="6.8075712025"><ele>558.66</ele><time>2014-06-12T17:21:25Z</time></trkpt><trkpt lat="46.4749524370" lon="6.8071629200"><ele>561.55</ele><time>2014-06-12T17:21:40Z</time></trkpt><trkpt lat="46.4750554506" lon="6.8064875901"><ele>558.66</ele><time>2014-06-12T17:21:51Z</time></trkpt><trkpt lat="46.4753504936" lon="6.8051614892"><ele>557.22</ele><time>2014-06-12T17:22:07Z</time></trkpt><trkpt lat="46.4755629748" lon="6.8043959700"><ele>560.59</ele><time>2014-06-12T17:22:24Z</time></trkpt><trkpt lat="46.4757565130" lon="6.8036364857"><ele>566.35</ele><time>2014-06-12T17:22:45Z</time></trkpt><trkpt lat="46.4758788049" lon="6.8029907439"><ele>569.72</ele><time>2014-06-12T17:23:03Z</time></trkpt><trkpt lat="46.4759749454" lon="6.8025677092"><ele>572.60</ele><time>2014-06-12T17:23:20Z</time></trkpt><trkpt lat="46.4760245662" lon="6.8021464348"><ele>579.33</ele><time>2014-06-12T17:23:39Z</time></trkpt><trkpt lat="46.4760321099" lon="6.8021039385"><ele>579.81</ele><time>2014-06-12T17:23:41Z</time></trkpt><trkpt lat="46.4760791324" lon="6.8018254917"><ele>581.25</ele><time>2014-06-12T17:23:54Z</time></trkpt><trkpt lat="46.4761680644" lon="6.8013048917"><ele>582.22</ele><time>2014-06-12T17:24:14Z</time></trkpt><trkpt lat="46.4762270730" lon="6.8008034863"><ele>580.29</ele><time>2014-06-12T17:24:24Z</time></trkpt><trkpt lat="46.4762143325" lon="6.8002897594"><ele>579.33</ele><time>2014-06-12T17:24:32Z</time></trkpt><trkpt lat="46.4763584174" lon="6.8000223767"><ele>578.37</ele><time>2014-06-12T17:24:38Z</time></trkpt><trkpt lat="46.4764222037" lon="6.7999878433"><ele>577.89</ele><time>2014-06-12T17:24:40Z</time></trkpt><trkpt lat="46.4764935337" lon="6.7996092327"><ele>577.41</ele><time>2014-06-12T17:24:47Z</time></trkpt><trkpt lat="46.4765231218" lon="6.7993027903"><ele>577.41</ele><time>2014-06-12T17:24:51Z</time></trkpt><trkpt lat="46.4763921127" lon="6.7988817673"><ele>576.45</ele><time>2014-06-12T17:24:57Z</time></trkpt><trkpt lat="46.4763047732" lon="6.7986593954"><ele>574.53</ele><time>2014-06-12T17:25:00Z</time></trkpt><trkpt lat="46.4762388915" lon="6.7983056791"><ele>571.16</ele><time>2014-06-12T17:25:04Z</time></trkpt><trkpt lat="46.4762198646" lon="6.7979662959"><ele>567.32</ele><time>2014-06-12T17:25:07Z</time></trkpt><trkpt lat="46.4761486184" lon="6.7974779662"><ele>560.59</ele><time>2014-06-12T17:25:11Z</time></trkpt><trkpt lat="46.4761649631" lon="6.7966977786"><ele>559.62</ele><time>2014-06-12T17:25:19Z</time></trkpt><trkpt lat="46.4763429109" lon="6.7962894961"><ele>561.55</ele><time>2014-06-12T17:25:31Z</time></trkpt><trkpt lat="46.4765532129" lon="6.7954694945"><ele>557.70</ele><time>2014-06-12T17:25:43Z</time></trkpt><trkpt lat="46.4767780993" lon="6.7949421890"><ele>556.26</ele><time>2014-06-12T17:25:50Z</time></trkpt><trkpt lat="46.4767753333" lon="6.7946375068"><ele>554.34</ele><time>2014-06-12T17:25:55Z</time></trkpt><trkpt lat="46.4768738206" lon="6.7941188347"><ele>549.53</ele><time>2014-06-12T17:26:01Z</time></trkpt><trkpt lat="46.4772715420" lon="6.7928238306"><ele>537.99</ele><time>2014-06-12T17:26:12Z</time></trkpt><trkpt lat="46.4772961009" lon="6.7925597169"><ele>536.55</ele><time>2014-06-12T17:26:14Z</time></trkpt><trkpt lat="46.4774273615" lon="6.7921242770"><ele>535.59</ele><time>2014-06-12T17:26:18Z</time></trkpt><trkpt lat="46.4775241725" lon="6.7919326667"><ele>534.63</ele><time>2014-06-12T17:26:20Z</time></trkpt><trkpt lat="46.4776337240" lon="6.7917649448"><ele>534.15</ele><time>2014-06-12T17:26:22Z</time></trkpt><trkpt lat="46.4777276851" lon="6.7915864103"><ele>533.67</ele><time>2014-06-12T17:26:24Z</time></trkpt><trkpt lat="46.4778122585" lon="6.7911930475"><ele>533.19</ele><time>2014-06-12T17:26:28Z</time></trkpt><trkpt lat="46.4778769668" lon="6.7908903770"><ele>531.27</ele><time>2014-06-12T17:26:31Z</time></trkpt><trkpt lat="46.4779843390" lon="6.7904354911"><ele>528.38</ele><time>2014-06-12T17:26:35Z</time></trkpt><trkpt lat="46.4779540803" lon="6.7901191581"><ele>528.86</ele><time>2014-06-12T17:26:39Z</time></trkpt><trkpt lat="46.4780572616" lon="6.7891399842"><ele>527.42</ele><time>2014-06-12T17:26:52Z</time></trkpt><trkpt lat="46.4780880231" lon="6.7888961546"><ele>526.46</ele><time>2014-06-12T17:26:56Z</time></trkpt><trkpt lat="46.4783763606" lon="6.7881059926"><ele>527.42</ele><time>2014-06-12T17:27:14Z</time></trkpt><trkpt lat="46.4783903584" lon="6.7880750634"><ele>527.42</ele><time>2014-06-12T17:27:15Z</time></trkpt><trkpt lat="46.4783335291" lon="6.7879706249"><ele>528.86</ele><time>2014-06-12T17:27:20Z</time></trkpt><trkpt lat="46.4782939665" lon="6.7880024761"><ele>529.34</ele><time>2014-06-12T17:27:29Z</time></trkpt><trkpt lat="46.4783150889" lon="6.7880075891"><ele>528.38</ele><time>2014-06-12T17:27:55Z</time></trkpt><trkpt lat="46.4783048630" lon="6.7880076729"><ele>529.34</ele><time>2014-06-12T17:28:08Z</time></trkpt><trkpt lat="46.4781604428" lon="6.7882350739"><ele>526.94</ele><time>2014-06-12T17:28:15Z</time></trkpt><trkpt lat="46.4780546632" lon="6.7883878760"><ele>524.54</ele><time>2014-06-12T17:28:18Z</time></trkpt><trkpt lat="46.4774469752" lon="6.7893430777"><ele>512.04</ele><time>2014-06-12T17:28:31Z</time></trkpt><trkpt lat="46.4773065783" lon="6.7896024138"><ele>508.67</ele><time>2014-06-12T17:28:34Z</time></trkpt><trkpt lat="46.4771630801" lon="6.7899681162"><ele>502.91</ele><time>2014-06-12T17:28:38Z</time></trkpt><trkpt lat="46.4769469947" lon="6.7902831919"><ele>496.66</ele><time>2014-06-12T17:28:43Z</time></trkpt><trkpt lat="46.4768626727" lon="6.7898712214"><ele>490.89</ele><time>2014-06-12T17:28:49Z</time></trkpt><trkpt lat="46.4769234415" lon="6.7897248734"><ele>490.89</ele><time>2014-06-12T17:28:51Z</time></trkpt><trkpt lat="46.4772080071" lon="6.7891911976"><ele>495.22</ele><time>2014-06-12T17:29:06Z</time></trkpt><trkpt lat="46.4773678500" lon="6.7886089906"><ele>498.10</ele><time>2014-06-12T17:29:22Z</time></trkpt><trkpt lat="46.4775742125" lon="6.7879986204"><ele>499.06</ele><time>2014-06-12T17:29:37Z</time></trkpt><trkpt lat="46.4777731150" lon="6.7871753499"><ele>501.46</ele><time>2014-06-12T17:29:53Z</time></trkpt><trkpt lat="46.4779363107" lon="6.7864194699"><ele>502.43</ele><time>2014-06-12T17:30:09Z</time></trkpt><trkpt lat="46.4780822396" lon="6.7854257114"><ele>501.46</ele><time>2014-06-12T17:30:20Z</time></trkpt><trkpt lat="46.4780783840" lon="6.7847734317"><ele>505.31</ele><time>2014-06-12T17:30:32Z</time></trkpt><trkpt lat="46.4780917112" lon="6.7843392491"><ele>509.16</ele><time>2014-06-12T17:30:46Z</time></trkpt><trkpt lat="46.4782373887" lon="6.7839089222"><ele>513.96</ele><time>2014-06-12T17:31:02Z</time></trkpt><trkpt lat="46.4785732515" lon="6.7833990511"><ele>512.52</ele><time>2014-06-12T17:31:21Z</time></trkpt><trkpt lat="46.4788295701" lon="6.7830910999"><ele>512.04</ele><time>2014-06-12T17:31:30Z</time></trkpt><trkpt lat="46.4790723100" lon="6.7827629484"><ele>516.85</ele><time>2014-06-12T17:31:46Z</time></trkpt><trkpt lat="46.4793603960" lon="6.7825148441"><ele>519.25</ele><time>2014-06-12T17:32:02Z</time></trkpt><trkpt lat="46.4796997793" lon="6.7821298633"><ele>522.61</ele><time>2014-06-12T17:32:21Z</time></trkpt><trkpt lat="46.4797785692" lon="6.7816773243"><ele>525.98</ele><time>2014-06-12T17:32:36Z</time></trkpt><trkpt lat="46.4796405192" lon="6.7809748370"><ele>524.06</ele><time>2014-06-12T17:32:47Z</time></trkpt><trkpt lat="46.4795095101" lon="6.7802381516"><ele>525.50</ele><time>2014-06-12T17:33:01Z</time></trkpt><trkpt lat="46.4794436283" lon="6.7797292024"><ele>525.98</ele><time>2014-06-12T17:33:12Z</time></trkpt><trkpt lat="46.4792053308" lon="6.7795323953"><ele>528.86</ele><time>2014-06-12T17:33:23Z</time></trkpt><trkpt lat="46.4790829550" lon="6.7794893123"><ele>526.94</ele><time>2014-06-12T17:33:27Z</time></trkpt><trkpt lat="46.4788839687" lon="6.7790719774"><ele>519.73</ele><time>2014-06-12T17:33:34Z</time></trkpt><trkpt lat="46.4787718188" lon="6.7774596345"><ele>517.33</ele><time>2014-06-12T17:33:50Z</time></trkpt><trkpt lat="46.4786475990" lon="6.7767185904"><ele>519.73</ele><time>2014-06-12T17:34:03Z</time></trkpt><trkpt lat="46.4786465093" lon="6.7761913687"><ele>520.69</ele><time>2014-06-12T17:34:17Z</time></trkpt><trkpt lat="46.4790024050" lon="6.7761736829"><ele>516.85</ele><time>2014-06-12T17:34:26Z</time></trkpt><trkpt lat="46.4790806081" lon="6.7760022730"><ele>515.40</ele><time>2014-06-12T17:34:29Z</time></trkpt><trkpt lat="46.4790698793" lon="6.7756721098"><ele>512.04</ele><time>2014-06-12T17:34:34Z</time></trkpt><trkpt lat="46.4789345954" lon="6.7754907254"><ele>510.60</ele><time>2014-06-12T17:34:38Z</time></trkpt><trkpt lat="46.4788215235" lon="6.7752065789"><ele>507.71</ele><time>2014-06-12T17:34:43Z</time></trkpt><trkpt lat="46.4786404744" lon="6.7746786866"><ele>508.19</ele><time>2014-06-12T17:34:53Z</time></trkpt><trkpt lat="46.4786326792" lon="6.7744058557"><ele>508.67</ele><time>2014-06-12T17:34:59Z</time></trkpt><trkpt lat="46.4786075335" lon="6.7737169471"><ele>503.39</ele><time>2014-06-12T17:35:07Z</time></trkpt><trkpt lat="46.4787284844" lon="6.7731222510"><ele>501.46</ele><time>2014-06-12T17:35:12Z</time></trkpt><trkpt lat="46.4789231122" lon="6.7726028245"><ele>502.43</ele><time>2014-06-12T17:35:19Z</time></trkpt><trkpt lat="46.4790759142" lon="6.7719782051"><ele>504.35</ele><time>2014-06-12T17:35:33Z</time></trkpt><trkpt lat="46.4790626708" lon="6.7719286680"><ele>504.35</ele><time>2014-06-12T17:35:34Z</time></trkpt><trkpt lat="46.4786327630" lon="6.7711743806"><ele>500.98</ele><time>2014-06-12T17:35:45Z</time></trkpt><trkpt lat="46.4784320164" lon="6.7708275374"><ele>505.79</ele><time>2014-06-12T17:35:55Z</time></trkpt><trkpt lat="46.4784168452" lon="6.7707811855"><ele>506.27</ele><time>2014-06-12T17:35:57Z</time></trkpt><trkpt lat="46.4785472676" lon="6.7705591489"><ele>510.12</ele><time>2014-06-12T17:36:11Z</time></trkpt><trkpt lat="46.4787361957" lon="6.7703125533"><ele>513.48</ele><time>2014-06-12T17:36:29Z</time></trkpt><trkpt lat="46.4788972959" lon="6.7700504512"><ele>516.37</ele><time>2014-06-12T17:36:47Z</time></trkpt><trkpt lat="46.4790468290" lon="6.7698145006"><ele>519.73</ele><time>2014-06-12T17:37:03Z</time></trkpt><trkpt lat="46.4791943505" lon="6.7695871834"><ele>523.58</ele><time>2014-06-12T17:37:19Z</time></trkpt><trkpt lat="46.4793581329" lon="6.7692866921"><ele>528.86</ele><time>2014-06-12T17:37:39Z</time></trkpt><trkpt lat="46.4793816861" lon="6.7692397535"><ele>529.82</ele><time>2014-06-12T17:37:42Z</time></trkpt><trkpt lat="46.4794490766" lon="6.7691167071"><ele>531.75</ele><time>2014-06-12T17:37:51Z</time></trkpt><trkpt lat="46.4795489050" lon="6.7688752245"><ele>534.63</ele><time>2014-06-12T17:38:07Z</time></trkpt><trkpt lat="46.4795748889" lon="6.7688450497"><ele>535.59</ele><time>2014-06-12T17:38:10Z</time></trkpt><trkpt lat="46.4795831870" lon="6.7688168027"><ele>536.07</ele><time>2014-06-12T17:38:12Z</time></trkpt><trkpt lat="46.4796173014" lon="6.7687421199"><ele>537.99</ele><time>2014-06-12T17:38:17Z</time></trkpt><trkpt lat="46.4797069877" lon="6.7685200833"><ele>541.36</ele><time>2014-06-12T17:38:32Z</time></trkpt><trkpt lat="46.4797108434" lon="6.7685048282"><ele>541.36</ele><time>2014-06-12T17:38:33Z</time></trkpt><trkpt lat="46.4798196405" lon="6.7683039978"><ele>545.69</ele><time>2014-06-12T17:38:48Z</time></trkpt><trkpt lat="46.4799685869" lon="6.7680988926"><ele>548.57</ele><time>2014-06-12T17:39:03Z</time></trkpt><trkpt lat="46.4801488817" lon="6.7678620201"><ele>550.49</ele><time>2014-06-12T17:39:20Z</time></trkpt><trkpt lat="46.4802119974" lon="6.7676797137"><ele>551.45</ele><time>2014-06-12T17:39:34Z</time></trkpt><trkpt lat="46.4802220557" lon="6.7676890176"><ele>550.97</ele><time>2014-06-12T17:39:58Z</time></trkpt><trkpt lat="46.4802022744" lon="6.7676859163"><ele>550.01</ele><time>2014-06-12T17:40:27Z</time></trkpt><trkpt lat="46.4802615345" lon="6.7676321045"><ele>550.49</ele><time>2014-06-12T17:40:40Z</time></trkpt><trkpt lat="46.4803785458" lon="6.7670271825"><ele>548.09</ele><time>2014-06-12T17:40:50Z</time></trkpt><trkpt lat="46.4805869199" lon="6.7663135473"><ele>544.72</ele><time>2014-06-12T17:40:58Z</time></trkpt><trkpt lat="46.4807611797" lon="6.7659288179"><ele>541.84</ele><time>2014-06-12T17:41:02Z</time></trkpt><trkpt lat="46.4808794484" lon="6.7657507025"><ele>540.40</ele><time>2014-06-12T17:41:04Z</time></trkpt><trkpt lat="46.4809820428" lon="6.7655517161"><ele>538.96</ele><time>2014-06-12T17:41:06Z</time></trkpt><trkpt lat="46.4817733783" lon="6.7634680588"><ele>532.71</ele><time>2014-06-12T17:41:23Z</time></trkpt><trkpt lat="46.4827233832" lon="6.7617048416"><ele>524.54</ele><time>2014-06-12T17:41:38Z</time></trkpt><trkpt lat="46.4833438955" lon="6.7606602050"><ele>518.29</ele><time>2014-06-12T17:41:47Z</time></trkpt><trkpt lat="46.4841012843" lon="6.7595484294"><ele>516.85</ele><time>2014-06-12T17:41:57Z</time></trkpt><trkpt lat="46.4849659614" lon="6.7583932355"><ele>516.37</ele><time>2014-06-12T17:42:08Z</time></trkpt><trkpt lat="46.4861722011" lon="6.7562246695"><ele>508.67</ele><time>2014-06-12T17:42:25Z</time></trkpt><trkpt lat="46.4872265607" lon="6.7547409888"><ele>497.62</ele><time>2014-06-12T17:42:38Z</time></trkpt><trkpt lat="46.4880368393" lon="6.7535430472"><ele>492.33</ele><time>2014-06-12T17:42:50Z</time></trkpt><trkpt lat="46.4888736885" lon="6.7521865200"><ele>487.53</ele><time>2014-06-12T17:43:04Z</time></trkpt><trkpt lat="46.4890307654" lon="6.7520710174"><ele>486.56</ele><time>2014-06-12T17:43:06Z</time></trkpt><trkpt lat="46.4893688075" lon="6.7513910774"><ele>484.64</ele><time>2014-06-12T17:43:13Z</time></trkpt><trkpt lat="46.4893817157" lon="6.7512697075"><ele>484.16</ele><time>2014-06-12T17:43:14Z</time></trkpt><trkpt lat="46.4894170035" lon="6.7509007361"><ele>482.24</ele><time>2014-06-12T17:43:17Z</time></trkpt><trkpt lat="46.4896616712" lon="6.7503810581"><ele>479.84</ele><time>2014-06-12T17:43:22Z</time></trkpt><trkpt lat="46.4899303112" lon="6.7500736937"><ele>477.43</ele><time>2014-06-12T17:43:26Z</time></trkpt><trkpt lat="46.4902224205" lon="6.7492569610"><ele>472.14</ele><time>2014-06-12T17:43:34Z</time></trkpt><trkpt lat="46.4902577922" lon="6.7491595633"><ele>471.18</ele><time>2014-06-12T17:43:41Z</time></trkpt><trkpt lat="46.4902999531" lon="6.7489904165"><ele>469.74</ele><time>2014-06-12T17:44:07Z</time></trkpt><trkpt lat="46.4903597161" lon="6.7488584854"><ele>469.74</ele><time>2014-06-12T17:44:10Z</time></trkpt><trkpt lat="46.4905052260" lon="6.7487433180"><ele>469.26</ele><time>2014-06-12T17:44:14Z</time></trkpt><trkpt lat="46.4906871971" lon="6.7486445792"><ele>467.34</ele><time>2014-06-12T17:44:18Z</time></trkpt><trkpt lat="46.4909503050" lon="6.7485057749"><ele>465.90</ele><time>2014-06-12T17:44:22Z</time></trkpt><trkpt lat="46.4912145864" lon="6.7481937166"><ele>464.45</ele><time>2014-06-12T17:44:27Z</time></trkpt><trkpt lat="46.4916076139" lon="6.7476198077"><ele>462.05</ele><time>2014-06-12T17:44:36Z</time></trkpt><trkpt lat="46.4917016588" lon="6.7473220825"><ele>460.61</ele><time>2014-06-12T17:44:40Z</time></trkpt><trkpt lat="46.4917724021" lon="6.7471893132"><ele>459.17</ele><time>2014-06-12T17:44:42Z</time></trkpt><trkpt lat="46.4918973763" lon="6.7465958744"><ele>456.76</ele><time>2014-06-12T17:44:51Z</time></trkpt><trkpt lat="46.4919976238" lon="6.7458571773"><ele>460.13</ele><time>2014-06-12T17:45:03Z</time></trkpt><trkpt lat="46.4920639247" lon="6.7456345540"><ele>461.09</ele><time>2014-06-12T17:45:07Z</time></trkpt><trkpt lat="46.4921570476" lon="6.7454628926"><ele>462.53</ele><time>2014-06-12T17:45:11Z</time></trkpt><trkpt lat="46.4920388628" lon="6.7453789059"><ele>463.49</ele><time>2014-06-12T17:45:18Z</time></trkpt><trkpt lat="46.4919742383" lon="6.7453933228"><ele>462.53</ele><time>2014-06-12T17:45:29Z</time></trkpt><trkpt lat="46.4919361006" lon="6.7453580350"><ele>465.90</ele><time>2014-06-12T17:45:49Z</time></trkpt><trkpt lat="46.4919022378" lon="6.7453320511"><ele>468.30</ele><time>2014-06-12T17:46:14Z</time></trkpt><trkpt lat="46.4919008967" lon="6.7453399301"><ele>468.30</ele><time>2014-06-12T17:46:22Z</time></trkpt><trkpt lat="46.4919700474" lon="6.7453537602"><ele>469.74</ele><time>2014-06-12T17:46:30Z</time></trkpt><trkpt lat="46.4920563810" lon="6.7453961726"><ele>473.11</ele><time>2014-06-12T17:46:44Z</time></trkpt><trkpt lat="46.4920730609" lon="6.7454001959"><ele>468.78</ele><time>2014-06-12T17:47:14Z</time></trkpt><trkpt lat="46.4920875616" lon="6.7453999445"><ele>466.38</ele><time>2014-06-12T17:47:55Z</time></trkpt><trkpt lat="46.4921106119" lon="6.7454021238"><ele>463.97</ele><time>2014-06-12T17:48:44Z</time></trkpt><trkpt lat="46.4920962788" lon="6.7454312928"><ele>464.93</ele><time>2014-06-12T17:49:15Z</time></trkpt><trkpt lat="46.4921235200" lon="6.7454198934"><ele>463.01</ele><time>2014-06-12T17:50:03Z</time></trkpt><trkpt lat="46.4920978714" lon="6.7454160377"><ele>465.90</ele><time>2014-06-12T17:50:50Z</time></trkpt><trkpt lat="46.4921040740" lon="6.7454272695"><ele>466.38</ele><time>2014-06-12T17:51:42Z</time></trkpt><trkpt lat="46.4921051636" lon="6.7454328015"><ele>465.42</ele><time>2014-06-12T17:52:36Z</time></trkpt><trkpt lat="46.4920999669" lon="6.7454247549"><ele>462.53</ele><time>2014-06-12T17:53:27Z</time></trkpt><trkpt lat="46.4921258669" lon="6.7453976814"><ele>462.53</ele><time>2014-06-12T17:54:19Z</time></trkpt><trkpt lat="46.4921117853" lon="6.7454123497"><ele>464.45</ele><time>2014-06-12T17:55:14Z</time></trkpt><trkpt lat="46.4920897409" lon="6.7454237491"><ele>463.01</ele><time>2014-06-12T17:56:05Z</time></trkpt><trkpt lat="46.4921023138" lon="6.7454131879"><ele>463.01</ele><time>2014-06-12T17:56:57Z</time></trkpt><trkpt lat="46.4921131264" lon="6.7454150319"><ele>464.45</ele><time>2014-06-12T17:57:54Z</time></trkpt><trkpt lat="46.4921049960" lon="6.7454004474"><ele>462.05</ele><time>2014-06-12T17:58:43Z</time></trkpt><trkpt lat="46.4921044931" lon="6.7454061471"><ele>462.05</ele><time>2014-06-12T17:59:37Z</time></trkpt><trkpt lat="46.4921096060" lon="6.7453980166"><ele>463.01</ele><time>2014-06-12T18:00:26Z</time></trkpt><trkpt lat="46.4921236876" lon="6.7453922331"><ele>463.49</ele><time>2014-06-12T18:01:16Z</time></trkpt><trkpt lat="46.4921137970" lon="6.7453882098"><ele>463.97</ele><time>2014-06-12T18:01:58Z</time></trkpt><trkpt lat="46.4921031520" lon="6.7453980166"><ele>463.97</ele><time>2014-06-12T18:02:46Z</time></trkpt><trkpt lat="46.4920985419" lon="6.7453984357"><ele>465.42</ele><time>2014-06-12T18:03:36Z</time></trkpt><trkpt lat="46.4921018947" lon="6.7454011180"><ele>466.86</ele><time>2014-06-12T18:04:34Z</time></trkpt><trkpt lat="46.4920920040" lon="6.7453965079"><ele>466.38</ele><time>2014-06-12T18:05:37Z</time></trkpt><trkpt lat="46.4920825325" lon="6.7454066500"><ele>465.90</ele><time>2014-06-12T18:06:43Z</time></trkpt><trkpt lat="46.4920982067" lon="6.7453966755"><ele>463.97</ele><time>2014-06-12T18:07:34Z</time></trkpt><trkpt lat="46.4921026491" lon="6.7454059795"><ele>463.97</ele><time>2014-06-12T18:08:22Z</time></trkpt><trkpt lat="46.4921225980" lon="6.7454108410"><ele>463.01</ele><time>2014-06-12T18:09:15Z</time></trkpt><trkpt lat="46.4921060018" lon="6.7454006150"><ele>461.57</ele><time>2014-06-12T18:10:01Z</time></trkpt><trkpt lat="46.4921106957" lon="6.7454095837"><ele>462.05</ele><time>2014-06-12T18:10:55Z</time></trkpt><trkpt lat="46.4921122044" lon="6.7454162892"><ele>464.45</ele><time>2014-06-12T18:11:52Z</time></trkpt><trkpt lat="46.4921392780" lon="6.7453867849"><ele>462.05</ele><time>2014-06-12T18:12:47Z</time></trkpt><trkpt lat="46.4921210892" lon="6.7453944124"><ele>462.05</ele><time>2014-06-12T18:13:45Z</time></trkpt><trkpt lat="46.4921364281" lon="6.7453830969"><ele>462.53</ele><time>2014-06-12T18:14:34Z</time></trkpt><trkpt lat="46.4921157248" lon="6.7453818396"><ele>462.05</ele><time>2014-06-12T18:15:31Z</time></trkpt><trkpt lat="46.4921004698" lon="6.7453903053"><ele>464.45</ele><time>2014-06-12T18:16:33Z</time></trkpt><trkpt lat="46.4921258669" lon="6.7453836836"><ele>464.45</ele><time>2014-06-12T18:17:37Z</time></trkpt><trkpt lat="46.4920958597" lon="6.7453886289"><ele>464.93</ele><time>2014-06-12T18:18:41Z</time></trkpt><trkpt lat="46.4921153057" lon="6.7453818396"><ele>465.42</ele><time>2014-06-12T18:19:39Z</time></trkpt><trkpt lat="46.4921276271" lon="6.7453913949"><ele>466.38</ele><time>2014-06-12T18:20:31Z</time></trkpt><trkpt lat="46.4921245258" lon="6.7453887966"><ele>468.30</ele><time>2014-06-12T18:21:16Z</time></trkpt><trkpt lat="46.4921304770" lon="6.7454005312"><ele>470.22</ele><time>2014-06-12T18:21:54Z</time></trkpt><trkpt lat="46.4921630826" lon="6.7454081587"><ele>471.18</ele><time>2014-06-12T18:22:06Z</time></trkpt><trkpt lat="46.4921843726" lon="6.7454162054"><ele>471.66</ele><time>2014-06-12T18:22:08Z</time></trkpt><trkpt lat="46.4923040662" lon="6.7453179695"><ele>473.11</ele><time>2014-06-12T18:22:14Z</time></trkpt><trkpt lat="46.4924824331" lon="6.7450695299"><ele>469.74</ele><time>2014-06-12T18:22:21Z</time></trkpt><trkpt lat="46.4924425352" lon="6.7444917653"><ele>466.38</ele><time>2014-06-12T18:22:29Z</time></trkpt><trkpt lat="46.4924002904" lon="6.7443786934"><ele>465.42</ele><time>2014-06-12T18:22:32Z</time></trkpt><trkpt lat="46.4923482388" lon="6.7442066967"><ele>466.38</ele><time>2014-06-12T18:22:38Z</time></trkpt><trkpt lat="46.4922956005" lon="6.7438771203"><ele>466.38</ele><time>2014-06-12T18:22:45Z</time></trkpt><trkpt lat="46.4921034873" lon="6.7437477037"><ele>466.86</ele><time>2014-06-12T18:22:51Z</time></trkpt><trkpt lat="46.4919384476" lon="6.7436304409"><ele>463.97</ele><time>2014-06-12T18:22:56Z</time></trkpt><trkpt lat="46.4919177443" lon="6.7430074979"><ele>454.36</ele><time>2014-06-12T18:23:05Z</time></trkpt><trkpt lat="46.4917764254" lon="6.7421325110"><ele>446.19</ele><time>2014-06-12T18:23:14Z</time></trkpt><trkpt lat="46.4916822966" lon="6.7414270900"><ele>439.94</ele><time>2014-06-12T18:23:21Z</time></trkpt><trkpt lat="46.4916446619" lon="6.7412260082"><ele>437.54</ele><time>2014-06-12T18:23:23Z</time></trkpt><trkpt lat="46.4915612619" lon="6.7409472261"><ele>433.69</ele><time>2014-06-12T18:23:26Z</time></trkpt><trkpt lat="46.4915081207" lon="6.7403455731"><ele>426.00</ele><time>2014-06-12T18:23:32Z</time></trkpt><trkpt lat="46.4915153291" lon="6.7400507815"><ele>421.68</ele><time>2014-06-12T18:23:35Z</time></trkpt><trkpt lat="46.4913383871" lon="6.7394941393"><ele>413.02</ele><time>2014-06-12T18:23:41Z</time></trkpt><trkpt lat="46.4911260735" lon="6.7391818296"><ele>407.74</ele><time>2014-06-12T18:23:45Z</time></trkpt><trkpt lat="46.4911413286" lon="6.7386475671"><ele>404.37</ele><time>2014-06-12T18:23:51Z</time></trkpt><trkpt lat="46.4913311787" lon="6.7369506508"><ele>402.45</ele><time>2014-06-12T18:24:11Z</time></trkpt><trkpt lat="46.4912955556" lon="6.7357959598"><ele>399.57</ele><time>2014-06-12T18:24:25Z</time></trkpt><trkpt lat="46.4912883472" lon="6.7356972210"><ele>398.60</ele><time>2014-06-12T18:24:26Z</time></trkpt><trkpt lat="46.4911004249" lon="6.7350975797"><ele>395.72</ele><time>2014-06-12T18:24:32Z</time></trkpt><trkpt lat="46.4908242412" lon="6.7337676231"><ele>395.24</ele><time>2014-06-12T18:24:47Z</time></trkpt><trkpt lat="46.4906432759" lon="6.7331758607"><ele>394.76</ele><time>2014-06-12T18:24:55Z</time></trkpt><trkpt lat="46.4905770589" lon="6.7327530775"><ele>394.28</ele><time>2014-06-12T18:25:01Z</time></trkpt><trkpt lat="46.4902940020" lon="6.7317016516"><ele>398.60</ele><time>2014-06-12T18:25:20Z</time></trkpt><trkpt lat="46.4901057445" lon="6.7312160879"><ele>400.53</ele><time>2014-06-12T18:25:32Z</time></trkpt><trkpt lat="46.4900339954" lon="6.7310237233"><ele>400.05</ele><time>2014-06-12T18:25:36Z</time></trkpt><trkpt lat="46.4897143934" lon="6.7301704455"><ele>397.16</ele><time>2014-06-12T18:25:47Z</time></trkpt><trkpt lat="46.4893856551" lon="6.7292793654"><ele>397.16</ele><time>2014-06-12T18:26:00Z</time></trkpt><trkpt lat="46.4892763551" lon="6.7289894354"><ele>396.68</ele><time>2014-06-12T18:26:04Z</time></trkpt><trkpt lat="46.4889969025" lon="6.7278315593"><ele>393.32</ele><time>2014-06-12T18:26:17Z</time></trkpt><trkpt lat="46.4889835753" lon="6.7277664319"><ele>392.84</ele><time>2014-06-12T18:26:19Z</time></trkpt><trkpt lat="46.4889743552" lon="6.7277780827"><ele>393.80</ele><time>2014-06-12T18:26:26Z</time></trkpt><trkpt lat="46.4888772089" lon="6.7275002226"><ele>394.76</ele><time>2014-06-12T18:26:34Z</time></trkpt><trkpt lat="46.4888824895" lon="6.7272408027"><ele>397.16</ele><time>2014-06-12T18:26:42Z</time></trkpt><trkpt lat="46.4888278395" lon="6.7271211091"><ele>400.05</ele><time>2014-06-12T18:26:47Z</time></trkpt><trkpt lat="46.4886633866" lon="6.7265986651"><ele>399.57</ele><time>2014-06-12T18:26:59Z</time></trkpt><trkpt lat="46.4886400010" lon="6.7264924664"><ele>399.57</ele><time>2014-06-12T18:27:01Z</time></trkpt><trkpt lat="46.4886457007" lon="6.7261222377"><ele>399.57</ele><time>2014-06-12T18:27:10Z</time></trkpt><trkpt lat="46.4884498157" lon="6.7255262006"><ele>396.20</ele><time>2014-06-12T18:27:25Z</time></trkpt><trkpt lat="46.4884250890" lon="6.7255233508"><ele>396.20</ele><time>2014-06-12T18:27:39Z</time></trkpt></trkseg></trk></gpx>